Terminal Aerodrome Forecast
Issued by NWS

Home | Current Version | Previous Version | Text Only | Print | Product List | Glossary On
Versions: 1 2 3 4 5 6 7 8 9 10 11 12 13 14 15 16 17 18 19 20
000
FTUS45 KRIW 272158 AAB
TAFJAC
TAF AMD
KJAC 272158Z 2722/2818 17006KT 6SM -SHSN BR BKN040 BKN120
      TEMPO 2722/2724 3SM -SHSN BKN030
     FM280000 18008KT P6SM VCSH SCT020 BKN025
     FM281700 20011KT 3SM -SHSN SCT015 OVC025
      AMD LTD TO CLD VIS AND WIND=

USA.gov is the U.S. government's official web portal to all federal, state and local government web resources and services.